Time;durP1;ratioP1;P1;durP2;ratioP2;P2;SDS_P1;SDS_P2;PMS_P1;PMS_P2;Temp;Humidity;BMP_temperature;BMP_pressure;BME280_temperature;BME280_humidity;BME280_pressure;Samples;Min_cycle;Max_cycle;Signal;HPM_P1;HPM_P2
2022/09/13 00:00:11;;;;;;;12.50;10.55;;;;;;;;;;5018438;28;20038;-73
2022/09/13 00:02:37;;;;;;;11.27;10.07;;;;;;;;;;5018773;28;20052;-73
2022/09/13 00:05:03;;;;;;;12.73;9.40;;;;;;;;;;5004521;28;20061;-73
2022/09/13 00:07:30;;;;;;;11.82;9.38;;;;;;;;;;5021762;28;20053;-73
2022/09/13 00:09:56;;;;;;;10.75;9.43;;;;;;;;;;5024302;28;20567;-74
2022/09/13 00:12:22;;;;;;;12.27;9.93;;;;;;;;;;5021184;28;20053;-74
2022/09/13 00:14:48;;;;;;;11.32;10.10;;;;;;;;;;5022340;28;20042;-74
2022/09/13 00:17:14;;;;;;;16.27;10.23;;;;;;;;;;5020720;28;20072;-73
2022/09/13 00:19:40;;;;;;;12.88;10.73;;;;;;;;;;5021830;28;20049;-74
2022/09/13 00:22:06;;;;;;;16.20;10.70;;;;;;;;;;5019609;28;20034;-74
2022/09/13 00:24:32;;;;;;;14.60;11.23;;;;;;;;;;5019790;28;20484;-73
2022/09/13 00:26:59;;;;;;;14.27;11.25;;;;;;;;;;5022414;28;20100;-74
2022/09/13 00:29:26;;;;;;;14.45;11.32;;;;;;;;;;5009554;28;20062;-74
2022/09/13 00:31:52;;;;;;;11.88;10.50;;;;;;;;;;5001437;28;20076;-74
2022/09/13 00:34:18;;;;;;;14.85;11.73;;;;;;;;;;5004465;28;20053;-74
2022/09/13 00:36:44;;;;;;;15.13;11.05;;;;;;;;;;5003753;28;20039;-74
2022/09/13 00:39:11;;;;;;;15.88;10.95;;;;;;;;;;5004985;28;20098;-74
2022/09/13 00:41:37;;;;;;;12.90;11.40;;;;;;;;;;5006857;28;20509;-74
2022/09/13 00:44:05;;;;;;;14.15;12.65;;;;;;;;;;5005565;28;20054;-74
2022/09/13 00:46:41;;;;;;;15.13;12.35;;;;;;;;;;5006256;28;20074;-74
2022/09/13 00:49:13;;;;;;;14.10;12.05;;;;;;;;;;5006800;28;20045;-74
2022/09/13 00:51:40;;;;;;;15.00;12.20;;;;;;;;;;5003578;28;20034;-75
2022/09/13 00:54:06;;;;;;;14.75;13.00;;;;;;;;;;5004273;28;20043;-74
2022/09/13 00:56:35;;;;;;;14.57;12.57;;;;;;;;;;5000834;28;20046;-74
2022/09/13 00:59:06;;;;;;;15.52;13.63;;;;;;;;;;5004951;28;20078;-74
2022/09/13 01:01:39;;;;;;;16.05;14.30;;;;;;;;;;5003564;28;20477;-73
2022/09/13 01:04:06;;;;;;;16.88;14.38;;;;;;;;;;5003702;28;20041;-74
2022/09/13 01:06:34;;;;;;;18.98;14.43;;;;;;;;;;4987820;28;20054;-74
2022/09/13 01:09:03;;;;;;;19.33;14.18;;;;;;;;;;5005881;28;20111;-74
2022/09/13 01:11:29;;;;;;;17.17;14.82;;;;;;;;;;5006004;28;20054;-74
2022/09/13 01:13:55;;;;;;;20.65;15.32;;;;;;;;;;5005704;28;20049;-74
2022/09/13 01:16:21;;;;;;;20.15;15.95;;;;;;;;;;5009183;28;20098;-73
2022/09/13 01:18:47;;;;;;;17.83;14.90;;;;;;;;;;5008248;28;20097;-74
2022/09/13 01:21:39;;;;;;;18.88;15.75;;;;;;;;;;4998618;28;20038;-74
2022/09/13 01:24:05;;;;;;;19.83;16.35;;;;;;;;;;5012494;28;20094;-74
2022/09/13 01:26:34;;;;;;;20.38;15.98;;;;;;;;;;5009789;28;20053;-74
2022/09/13 01:29:19;;;;;;;17.67;15.77;;;;;;;;;;5014927;28;20112;-74
2022/09/13 01:31:58;;;;;;;18.00;14.50;;;;;;;;;;5025311;28;20107;-74
2022/09/13 01:34:37;;;;;;;19.17;16.25;;;;;;;;;;5029245;28;20050;-73
2022/09/13 01:37:09;;;;;;;21.80;17.20;;;;;;;;;;5029931;28;20042;-74
2022/09/13 01:39:54;;;;;;;18.63;16.42;;;;;;;;;;5009561;28;20752;-74
2022/09/13 01:42:23;;;;;;;18.98;16.75;;;;;;;;;;5028913;28;20077;-74
2022/09/13 01:45:04;;;;;;;23.88;17.27;;;;;;;;;;5028370;28;20041;-74
2022/09/13 01:47:42;;;;;;;19.15;16.67;;;;;;;;;;5009950;28;20041;-74
2022/09/13 01:50:23;;;;;;;22.48;18.58;;;;;;;;;;5023558;28;20046;-74
2022/09/13 01:52:56;;;;;;;19.95;17.85;;;;;;;;;;5024160;28;20037;-74
2022/09/13 01:55:29;;;;;;;21.33;17.95;;;;;;;;;;5024428;28;20038;-74
2022/09/13 01:57:57;;;;;;;22.25;18.65;;;;;;;;;;5025929;28;20073;-74
2022/09/13 02:00:24;;;;;;;19.83;16.90;;;;;;;;;;5023470;28;20038;-74
2022/09/13 02:02:54;;;;;;;21.38;18.95;;;;;;;;;;5025466;28;20056;-74
2022/09/13 02:05:20;;;;;;;22.15;18.15;;;;;;;;;;5025865;28;20041;-74
2022/09/13 02:07:49;;;;;;;19.98;17.63;;;;;;;;;;5025792;28;20041;-74
2022/09/13 02:10:20;;;;;;;21.77;18.58;;;;;;;;;;5026704;28;20046;-74
2022/09/13 02:12:47;;;;;;;24.33;18.75;;;;;;;;;;5025662;28;20038;-74
2022/09/13 02:15:18;;;;;;;22.15;18.67;;;;;;;;;;5027720;28;20049;-74
2022/09/13 02:17:49;;;;;;;20.52;18.10;;;;;;;;;;5024903;28;20046;-74
2022/09/13 02:20:18;;;;;;;20.90;18.58;;;;;;;;;;5024464;28;20046;-74
2022/09/13 02:22:47;;;;;;;21.25;18.95;;;;;;;;;;5026102;28;20042;-74
2022/09/13 02:25:14;;;;;;;22.38;19.10;;;;;;;;;;5025335;28;20090;-74
2022/09/13 02:27:41;;;;;;;21.92;19.00;;;;;;;;;;5025490;28;20045;-74
2022/09/13 02:30:09;;;;;;;21.40;18.77;;;;;;;;;;5023390;28;20065;-74
2022/09/13 02:32:51;;;;;;;22.00;18.88;;;;;;;;;;5024103;28;20512;-74
2022/09/13 02:35:17;;;;;;;21.90;19.33;;;;;;;;;;5025052;28;20064;-74
2022/09/13 02:37:46;;;;;;;24.45;20.48;;;;;;;;;;5026982;28;20061;-74
2022/09/13 02:40:20;;;;;;;22.73;18.45;;;;;;;;;;5024760;28;20041;-74
2022/09/13 02:43:00;;;;;;;23.52;20.90;;;;;;;;;;5024788;28;20096;-74
2022/09/13 02:45:30;;;;;;;26.58;21.38;;;;;;;;;;5023388;28;20049;-74
2022/09/13 02:47:57;;;;;;;23.38;19.65;;;;;;;;;;5024532;28;20057;-74
2022/09/13 02:50:24;;;;;;;25.10;20.10;;;;;;;;;;4999826;28;20050;-74
2022/09/13 02:52:56;;;;;;;25.85;21.73;;;;;;;;;;5017478;28;20109;-74
2022/09/13 02:55:24;;;;;;;25.05;21.45;;;;;;;;;;5026182;28;20038;-74
2022/09/13 02:58:08;;;;;;;29.65;23.92;;;;;;;;;;5025161;28;20100;-74
2022/09/13 03:00:34;;;;;;;27.40;21.60;;;;;;;;;;5023248;28;20052;-73
2022/09/13 03:03:04;;;;;;;25.33;22.42;;;;;;;;;;5024384;28;20061;-74
2022/09/13 03:05:30;;;;;;;25.08;20.50;;;;;;;;;;5017016;28;20042;-74
2022/09/13 03:07:56;;;;;;;26.33;21.77;;;;;;;;;;5015815;28;20405;-74
2022/09/13 03:10:22;;;;;;;28.77;23.25;;;;;;;;;;5016718;28;20042;-74
2022/09/13 03:12:51;;;;;;;28.42;23.10;;;;;;;;;;5017970;28;20050;-74
2022/09/13 03:15:23;;;;;;;32.75;23.13;;;;;;;;;;5017080;28;20034;-74
2022/09/13 03:17:53;;;;;;;26.85;21.33;;;;;;;;;;4999989;28;20065;-74
2022/09/13 03:20:27;;;;;;;30.25;23.48;;;;;;;;;;5021466;28;20511;-74
2022/09/13 03:22:53;;;;;;;24.40;19.63;;;;;;;;;;5023254;28;20046;-74
2022/09/13 03:25:28;;;;;;;28.23;21.23;;;;;;;;;;5020949;28;20046;-74
2022/09/13 03:28:13;;;;;;;24.75;20.95;;;;;;;;;;5021015;28;20042;-74
2022/09/13 03:30:43;;;;;;;24.58;21.15;;;;;;;;;;4997396;28;20516;-73
2022/09/13 03:33:17;;;;;;;26.50;21.03;;;;;;;;;;5023989;28;20562;-74
2022/09/13 03:35:56;;;;;;;28.25;21.98;;;;;;;;;;5023892;28;20312;-74
2022/09/13 03:38:33;;;;;;;22.35;19.40;;;;;;;;;;5020643;28;20069;-74
2022/09/13 03:41:07;;;;;;;27.02;21.98;;;;;;;;;;5018727;28;20069;-74
2022/09/13 03:43:37;;;;;;;27.42;23.30;;;;;;;;;;5024817;28;20042;-74
2022/09/13 03:46:09;;;;;;;27.38;20.60;;;;;;;;;;5024065;28;20385;-74
2022/09/13 03:48:37;;;;;;;27.33;21.85;;;;;;;;;;5019692;28;20049;-74
2022/09/13 03:51:04;;;;;;;26.58;20.38;;;;;;;;;;5020389;28;20049;-74
2022/09/13 03:53:31;;;;;;;26.13;21.35;;;;;;;;;;5019969;28;20054;-74
2022/09/13 03:55:57;;;;;;;26.40;22.23;;;;;;;;;;5015719;28;20042;-74
2022/09/13 03:58:25;;;;;;;27.85;22.65;;;;;;;;;;5017574;28;20042;-74
2022/09/13 04:00:52;;;;;;;28.65;23.00;;;;;;;;;;5020217;28;20046;-74
2022/09/13 04:03:18;;;;;;;24.58;19.95;;;;;;;;;;5020005;28;20046;-73
2022/09/13 04:05:44;;;;;;;28.10;21.77;;;;;;;;;;5021642;28;20049;-74
2022/09/13 04:08:10;;;;;;;26.70;22.60;;;;;;;;;;5002442;28;20389;-73
2022/09/13 04:10:36;;;;;;;25.30;20.65;;;;;;;;;;5004117;28;20432;-73
2022/09/13 04:13:03;;;;;;;27.45;21.88;;;;;;;;;;5019390;28;20444;-74
2022/09/13 04:15:32;;;;;;;30.05;22.98;;;;;;;;;;4999417;28;20053;-73
2022/09/13 04:17:59;;;;;;;29.45;22.25;;;;;;;;;;5020329;28;20169;-74
2022/09/13 04:20:25;;;;;;;27.13;22.05;;;;;;;;;;5021601;28;20076;-74
2022/09/13 04:22:52;;;;;;;26.75;22.27;;;;;;;;;;5004275;28;20514;-74
2022/09/13 04:25:19;;;;;;;26.45;22.30;;;;;;;;;;5020515;28;20056;-73
2022/09/13 04:27:45;;;;;;;28.63;21.70;;;;;;;;;;5019594;28;20072;-74
2022/09/13 04:30:12;;;;;;;28.98;22.35;;;;;;;;;;5019583;28;20054;-74
2022/09/13 04:32:38;;;;;;;29.02;23.52;;;;;;;;;;5019452;28;21667;-73
2022/09/13 04:35:08;;;;;;;30.05;23.00;;;;;;;;;;5021802;28;20049;-74
2022/09/13 04:37:34;;;;;;;27.85;22.83;;;;;;;;;;5021140;28;20050;-74
2022/09/13 04:40:00;;;;;;;30.15;23.02;;;;;;;;;;5016205;28;20083;-74
2022/09/13 04:42:26;;;;;;;31.20;23.27;;;;;;;;;;5017655;28;20499;-73
2022/09/13 04:44:52;;;;;;;30.60;22.88;;;;;;;;;;5021025;28;20042;-73
2022/09/13 04:47:18;;;;;;;30.80;22.70;;;;;;;;;;5018691;28;20104;-74
2022/09/13 04:49:44;;;;;;;36.28;23.65;;;;;;;;;;5015388;28;20042;-73
2022/09/13 04:52:10;;;;;;;27.33;22.50;;;;;;;;;;5007888;28;20046;-74
2022/09/13 04:54:36;;;;;;;26.58;20.30;;;;;;;;;;5021136;28;20046;-73
2022/09/13 04:57:02;;;;;;;30.30;22.08;;;;;;;;;;5018410;28;20069;-73
2022/09/13 04:59:28;;;;;;;24.15;19.55;;;;;;;;;;5017899;28;20069;-74
2022/09/13 05:01:54;;;;;;;27.45;19.58;;;;;;;;;;5020336;28;20085;-73
2022/09/13 05:04:21;;;;;;;25.52;20.73;;;;;;;;;;5019893;28;20075;-74
2022/09/13 05:06:47;;;;;;;26.20;20.35;;;;;;;;;;5018687;28;20050;-73
2022/09/13 05:09:14;;;;;;;28.33;22.13;;;;;;;;;;5022428;28;20129;-73
2022/09/13 05:11:40;;;;;;;24.95;20.17;;;;;;;;;;5024314;28;20042;-73
2022/09/13 05:14:06;;;;;;;26.08;19.85;;;;;;;;;;5022897;28;20042;-73
2022/09/13 05:16:33;;;;;;;22.40;17.55;;;;;;;;;;5021732;28;20089;-73
2022/09/13 05:18:59;;;;;;;27.33;21.58;;;;;;;;;;5019426;28;20502;-73
2022/09/13 05:21:26;;;;;;;28.08;21.25;;;;;;;;;;5020397;28;20070;-73
2022/09/13 05:23:53;;;;;;;23.08;17.80;;;;;;;;;;5022761;28;20068;-73
2022/09/13 05:26:20;;;;;;;26.60;19.02;;;;;;;;;;5018566;28;20046;-73
2022/09/13 05:28:46;;;;;;;27.33;20.25;;;;;;;;;;5021809;28;20054;-73
2022/09/13 05:31:15;;;;;;;25.58;18.50;;;;;;;;;;5020060;28;20042;-73
2022/09/13 05:33:41;;;;;;;30.13;20.60;;;;;;;;;;5018666;28;21442;-73
2022/09/13 05:36:07;;;;;;;28.85;21.27;;;;;;;;;;5003785;28;20049;-74
2022/09/13 05:38:33;;;;;;;26.17;20.23;;;;;;;;;;5018111;28;20045;-73
2022/09/13 05:41:01;;;;;;;31.27;21.50;;;;;;;;;;5009902;28;20065;-74
2022/09/13 05:43:28;;;;;;;23.40;19.25;;;;;;;;;;5021170;28;20038;-73
2022/09/13 05:46:08;;;;;;;25.65;18.27;;;;;;;;;;5022381;28;20038;-74
2022/09/13 05:48:34;;;;;;;27.00;19.75;;;;;;;;;;5019324;28;20077;-73
2022/09/13 05:51:04;;;;;;;22.52;16.42;;;;;;;;;;5021048;28;20068;-73
2022/09/13 05:53:30;;;;;;;24.83;17.97;;;;;;;;;;5021945;28;20183;-74
2022/09/13 05:55:56;;;;;;;28.55;19.13;;;;;;;;;;5021428;28;20403;-73
2022/09/13 05:58:22;;;;;;;24.48;18.52;;;;;;;;;;5022250;28;20104;-74
2022/09/13 06:00:53;;;;;;;24.52;17.55;;;;;;;;;;5020869;28;20037;-74
2022/09/13 06:03:19;;;;;;;24.05;17.65;;;;;;;;;;4996659;28;20199;-74
2022/09/13 06:05:45;;;;;;;22.33;16.00;;;;;;;;;;5016385;28;20042;-73
2022/09/13 06:08:11;;;;;;;18.15;14.88;;;;;;;;;;5004834;28;20050;-73
2022/09/13 06:10:37;;;;;;;20.88;15.68;;;;;;;;;;5017704;28;20452;-74
2022/09/13 06:13:03;;;;;;;25.00;16.30;;;;;;;;;;5001289;28;20121;-73
2022/09/13 06:15:28;;;;;;;20.80;15.82;;;;;;;;;;5021738;28;20042;-73
2022/09/13 06:17:54;;;;;;;19.80;14.40;;;;;;;;;;5021223;28;20073;-73
2022/09/13 06:20:20;;;;;;;19.00;15.63;;;;;;;;;;5021346;28;20034;-73
2022/09/13 06:22:47;;;;;;;19.83;15.57;;;;;;;;;;5022001;28;20048;-73
2022/09/13 06:25:13;;;;;;;22.73;17.20;;;;;;;;;;5021448;28;20095;-73
2022/09/13 06:27:39;;;;;;;19.90;15.68;;;;;;;;;;5023091;28;20093;-74
2022/09/13 06:30:07;;;;;;;20.67;15.23;;;;;;;;;;5018967;28;20384;-73
2022/09/13 06:32:33;;;;;;;15.57;10.35;;;;;;;;;;5003657;28;20049;-73
2022/09/13 06:35:00;;;;;;;12.90;7.22;;;;;;;;;;5023974;28;20042;-74
2022/09/13 06:37:26;;;;;;;12.55;7.55;;;;;;;;;;5017955;28;20057;-73
2022/09/13 06:39:52;;;;;;;13.85;7.32;;;;;;;;;;5021301;28;20092;-74
2022/09/13 06:42:18;;;;;;;14.05;7.03;;;;;;;;;;5015524;28;20062;-73
2022/09/13 06:44:47;;;;;;;12.18;5.70;;;;;;;;;;5017524;28;20038;-74
2022/09/13 06:47:13;;;;;;;11.32;5.53;;;;;;;;;;5021537;28;20045;-74
2022/09/13 06:49:39;;;;;;;11.63;5.40;;;;;;;;;;5023141;28;20046;-74
2022/09/13 06:52:05;;;;;;;11.02;5.50;;;;;;;;;;5027334;28;20129;-73
2022/09/13 06:54:31;;;;;;;9.40;5.18;;;;;;;;;;5023277;28;20034;-74
2022/09/13 06:56:57;;;;;;;9.15;4.05;;;;;;;;;;5022465;28;20054;-74
2022/09/13 06:59:24;;;;;;;9.77;4.30;;;;;;;;;;5029262;28;20574;-74
2022/09/13 07:01:49;;;;;;;8.60;3.75;;;;;;;;;;5029364;28;20110;-74
2022/09/13 07:04:18;;;;;;;11.95;3.40;;;;;;;;;;5026463;28;20037;-74
2022/09/13 07:06:46;;;;;;;9.50;3.55;;;;;;;;;;5023144;28;20048;-74
2022/09/13 07:09:13;;;;;;;8.38;3.55;;;;;;;;;;5028604;28;20049;-73
2022/09/13 07:11:40;;;;;;;7.80;3.05;;;;;;;;;;5022939;28;20129;-74
2022/09/13 07:14:07;;;;;;;7.88;3.50;;;;;;;;;;5026022;28;20041;-73
2022/09/13 07:16:34;;;;;;;7.68;2.67;;;;;;;;;;5022212;28;20038;-73
2022/09/13 07:19:01;;;;;;;7.15;2.40;;;;;;;;;;5030563;28;20077;-73
2022/09/13 07:21:27;;;;;;;8.65;2.25;;;;;;;;;;5035479;28;20071;-73
2022/09/13 07:23:54;;;;;;;8.30;2.30;;;;;;;;;;5029272;28;20045;-73
2022/09/13 07:26:21;;;;;;;6.47;1.67;;;;;;;;;;5026004;28;20038;-73
2022/09/13 07:28:48;;;;;;;7.20;2.25;;;;;;;;;;5008461;28;20053;-74
2022/09/13 07:31:27;;;;;;;7.90;1.77;;;;;;;;;;5028798;28;20042;-73
2022/09/13 07:33:55;;;;;;;5.18;1.73;;;;;;;;;;5018424;28;20053;-74
2022/09/13 07:36:21;;;;;;;7.25;2.08;;;;;;;;;;5025714;28;20069;-73
2022/09/13 07:38:47;;;;;;;8.18;2.10;;;;;;;;;;5024456;28;20045;-74
2022/09/13 07:41:14;;;;;;;7.30;1.95;;;;;;;;;;5025351;28;20053;-74
2022/09/13 07:43:40;;;;;;;5.85;2.10;;;;;;;;;;5026081;28;20049;-74
2022/09/13 07:46:08;;;;;;;8.38;2.10;;;;;;;;;;5026660;28;20042;-74
2022/09/13 07:48:36;;;;;;;6.47;1.95;;;;;;;;;;5023976;28;20042;-74
2022/09/13 07:51:03;;;;;;;8.15;1.98;;;;;;;;;;5026790;28;20076;-74
2022/09/13 07:53:30;;;;;;;7.15;1.67;;;;;;;;;;5026992;28;20071;-73
2022/09/13 07:56:03;;;;;;;9.55;1.52;;;;;;;;;;5029047;28;20076;-74
2022/09/13 07:58:29;;;;;;;8.10;1.48;;;;;;;;;;5026826;28;20033;-74
2022/09/13 08:01:00;;;;;;;8.63;1.48;;;;;;;;;;5027816;28;20053;-76
2022/09/13 08:03:26;;;;;;;10.43;1.52;;;;;;;;;;5034381;28;20049;-74
2022/09/13 08:05:52;;;;;;;8.13;1.52;;;;;;;;;;5034687;28;20062;-74
2022/09/13 08:08:19;;;;;;;9.02;1.50;;;;;;;;;;5034897;28;20042;-75
2022/09/13 08:10:45;;;;;;;6.25;1.23;;;;;;;;;;5022086;28;20046;-75
2022/09/13 08:13:11;;;;;;;5.60;1.20;;;;;;;;;;5026158;28;20053;-75
2022/09/13 08:15:37;;;;;;;6.30;1.40;;;;;;;;;;5026130;28;20049;-75
2022/09/13 08:18:05;;;;;;;9.05;1.67;;;;;;;;;;5023808;28;20046;-77
2022/09/13 08:20:31;;;;;;;4.05;0.80;;;;;;;;;;5029221;28;20041;-76
2022/09/13 08:22:57;;;;;;;5.78;1.17;;;;;;;;;;5027686;28;20093;-74
2022/09/13 08:25:23;;;;;;;5.85;1.13;;;;;;;;;;5027305;28;20046;-74
2022/09/13 08:27:49;;;;;;;6.43;1.10;;;;;;;;;;5025401;28;20042;-74
2022/09/13 08:30:15;;;;;;;6.00;1.02;;;;;;;;;;5025346;28;20112;-76
2022/09/13 08:32:41;;;;;;;9.30;1.40;;;;;;;;;;5026180;28;20061;-74
2022/09/13 08:35:07;;;;;;;8.27;1.25;;;;;;;;;;5012902;28;20076;-76
2022/09/13 08:37:33;;;;;;;5.35;0.90;;;;;;;;;;5031370;28;20046;-75
2022/09/13 08:40:00;;;;;;;9.02;1.33;;;;;;;;;;5028015;28;20057;-74
2022/09/13 08:42:44;;;;;;;5.75;1.05;;;;;;;;;;5028085;28;20050;-75
2022/09/13 08:45:10;;;;;;;6.47;1.00;;;;;;;;;;5027134;28;20513;-75
2022/09/13 08:47:54;;;;;;;9.10;1.27;;;;;;;;;;5020436;28;20034;-76
2022/09/13 08:50:21;;;;;;;5.80;0.93;;;;;;;;;;5019717;28;20037;-76
2022/09/13 08:52:51;;;;;;;5.70;0.70;;;;;;;;;;5020086;28;20128;-76
2022/09/13 08:55:23;;;;;;;5.70;0.80;;;;;;;;;;5018923;28;20084;-76
2022/09/13 08:58:01;;;;;;;5.45;1.00;;;;;;;;;;5017260;28;20496;-77
2022/09/13 09:00:42;;;;;;;6.05;1.00;;;;;;;;;;5010381;28;20052;-76
2022/09/13 09:03:14;;;;;;;5.00;1.10;;;;;;;;;;5018826;28;20050;-76
2022/09/13 09:05:51;;;;;;;8.13;1.25;;;;;;;;;;5018783;28;20120;-76
2022/09/13 09:08:26;;;;;;;4.85;0.90;;;;;;;;;;5016369;28;20740;-77
2022/09/13 09:10:55;;;;;;;4.97;0.60;;;;;;;;;;5016174;28;20046;-76
2022/09/13 09:13:33;;;;;;;6.43;0.70;;;;;;;;;;5023970;28;20042;-77
2022/09/13 09:16:06;;;;;;;7.20;0.90;;;;;;;;;;5011823;28;20411;-76
2022/09/13 09:18:38;;;;;;;5.75;0.70;;;;;;;;;;4998088;28;20048;-75
2022/09/13 09:21:04;;;;;;;6.25;0.88;;;;;;;;;;5022084;28;20558;-77
2022/09/13 09:23:35;;;;;;;3.20;0.70;;;;;;;;;;5016788;28;20061;-76
2022/09/13 09:26:19;;;;;;;5.43;0.70;;;;;;;;;;5014763;28;20050;-77
2022/09/13 09:28:59;;;;;;;5.15;0.90;;;;;;;;;;5026517;28;20133;-75
2022/09/13 09:31:34;;;;;;;3.50;0.80;;;;;;;;;;5029509;28;20049;-75
2022/09/13 09:34:03;;;;;;;4.60;0.73;;;;;;;;;;5031458;28;20042;-75
2022/09/13 09:36:42;;;;;;;6.63;0.80;;;;;;;;;;5029633;28;20044;-75
2022/09/13 09:39:11;;;;;;;5.63;0.85;;;;;;;;;;5025706;28;20046;-75
2022/09/13 09:41:37;;;;;;;4.00;0.80;;;;;;;;;;5014774;28;20086;-75
2022/09/13 09:44:22;;;;;;;4.75;0.73;;;;;;;;;;5017626;28;20045;-75
2022/09/13 09:46:57;;;;;;;5.70;0.82;;;;;;;;;;5017703;28;20069;-75
2022/09/13 09:52:10;;;;;;;6.13;1.00;;;;;;;;;;5015146;28;20133;-75
2022/09/13 09:54:37;;;;;;;4.95;0.70;;;;;;;;;;5014783;28;20034;-75
2022/09/13 09:57:06;;;;;;;7.45;1.08;;;;;;;;;;5013889;28;20456;-75
2022/09/13 09:59:33;;;;;;;5.15;0.63;;;;;;;;;;4997316;28;20046;-74
2022/09/13 10:02:00;;;;;;;5.18;0.60;;;;;;;;;;4996837;28;20057;-75
2022/09/13 10:04:27;;;;;;;6.43;1.00;;;;;;;;;;5012205;28;20437;-75
2022/09/13 10:07:12;;;;;;;5.60;1.00;;;;;;;;;;4995188;28;20480;-75
2022/09/13 10:09:39;;;;;;;7.07;0.90;;;;;;;;;;5013116;28;20488;-75
2022/09/13 10:12:06;;;;;;;7.70;0.85;;;;;;;;;;5012012;28;20037;-75
2022/09/13 10:14:42;;;;;;;7.18;0.75;;;;;;;;;;5014250;28;20042;-75
2022/09/13 10:17:23;;;;;;;4.20;0.63;;;;;;;;;;5012769;28;20057;-74
2022/09/13 10:20:03;;;;;;;7.68;1.00;;;;;;;;;;5008847;28;20037;-75
2022/09/13 10:22:30;;;;;;;5.82;0.90;;;;;;;;;;5015350;28;20084;-77
2022/09/13 10:25:17;;;;;;;5.88;0.75;;;;;;;;;;5014659;28;20038;-77
2022/09/13 10:27:48;;;;;;;7.78;0.90;;;;;;;;;;5012434;28;20038;-75
2022/09/13 10:30:14;;;;;;;;;;;;;;;;;;5014456;28;20045;-75
2022/09/13 10:32:40;;;;;;;5.78;0.82;;;;;;;;;;5014594;28;19941;-75
2022/09/13 10:35:18;;;;;;;5.30;0.82;;;;;;;;;;5013931;28;20178;-76
2022/09/13 10:37:44;;;;;;;5.22;0.75;;;;;;;;;;5013998;28;20057;-75
2022/09/13 10:40:32;;;;;;;8.57;0.90;;;;;;;;;;5013336;28;20044;-75
2022/09/13 10:43:00;;;;;;;6.95;0.70;;;;;;;;;;5013050;28;20054;-75
2022/09/13 10:45:28;;;;;;;5.95;0.85;;;;;;;;;;5013081;28;20042;-75
2022/09/13 10:47:55;;;;;;;6.53;0.82;;;;;;;;;;5009134;28;20057;-76
2022/09/13 10:50:28;;;;;;;5.85;0.80;;;;;;;;;;5013587;28;20073;-76
2022/09/13 10:52:54;;;;;;;6.95;0.80;;;;;;;;;;5014588;28;20080;-76
2022/09/13 10:55:24;;;;;;;5.82;0.80;;;;;;;;;;4975806;28;20042;-75
2022/09/13 10:57:52;;;;;;;5.88;1.10;;;;;;;;;;5011343;28;20046;-76
2022/09/13 11:00:20;;;;;;;5.35;0.82;;;;;;;;;;5010011;28;20496;-75
2022/09/13 11:02:49;;;;;;;9.30;1.13;;;;;;;;;;5012809;28;20492;-76
2022/09/13 11:05:15;;;;;;;4.93;0.77;;;;;;;;;;5010093;28;20455;-76
2022/09/13 11:07:41;;;;;;;8.43;1.20;;;;;;;;;;5012312;28;20511;-75
2022/09/13 11:10:13;;;;;;;6.53;1.10;;;;;;;;;;5012656;28;20773;-74
2022/09/13 11:12:44;;;;;;;7.88;0.85;;;;;;;;;;5011771;28;20049;-75
2022/09/13 11:15:29;;;;;;;7.50;0.90;;;;;;;;;;5002882;28;20046;-76
2022/09/13 11:18:14;;;;;;;6.28;0.80;;;;;;;;;;5010098;28;20076;-76
2022/09/13 11:20:43;;;;;;;5.28;0.70;;;;;;;;;;5013002;28;20060;-75
2022/09/13 11:23:12;;;;;;;5.90;0.65;;;;;;;;;;5013090;28;20061;-75
2022/09/13 11:25:38;;;;;;;7.20;0.77;;;;;;;;;;5017634;28;20046;-76
2022/09/13 11:28:14;;;;;;;5.45;0.73;;;;;;;;;;4998279;28;20045;-76
2022/09/13 11:30:49;;;;;;;8.85;1.02;;;;;;;;;;5015457;28;20468;-76
2022/09/13 11:33:26;;;;;;;5.68;0.75;;;;;;;;;;5006704;28;20049;-77
2022/09/13 11:36:01;;;;;;;4.65;0.65;;;;;;;;;;5011877;28;20092;-77
2022/09/13 11:38:35;;;;;;;6.85;0.93;;;;;;;;;;5015746;28;20549;-79
2022/09/13 11:41:17;;;;;;;7.80;1.35;;;;;;;;;;5013138;28;20042;-79
2022/09/13 11:43:55;;;;;;;6.45;1.02;;;;;;;;;;5016435;28;20045;-76
2022/09/13 11:46:39;;;;;;;9.00;0.98;;;;;;;;;;5013335;28;20500;-78
2022/09/13 11:49:18;;;;;;;6.57;0.90;;;;;;;;;;5012516;28;20084;-74
2022/09/13 11:52:10;;;;;;;5.55;0.70;;;;;;;;;;5015676;28;20042;-77
2022/09/13 11:54:51;;;;;;;7.55;1.33;;;;;;;;;;4984959;28;20052;-74
2022/09/13 11:57:20;;;;;;;4.78;0.68;;;;;;;;;;5016925;28;20133;-74
2022/09/13 11:59:52;;;;;;;8.23;1.15;;;;;;;;;;5013117;28;20054;-75
2022/09/13 12:02:18;;;;;;;5.47;0.70;;;;;;;;;;5011715;28;20108;-74
2022/09/13 12:04:52;;;;;;;5.18;0.95;;;;;;;;;;5012852;28;20045;-75
2022/09/13 12:07:25;;;;;;;5.57;1.10;;;;;;;;;;5009349;28;20392;-75
2022/09/13 12:09:59;;;;;;;6.07;1.00;;;;;;;;;;5016901;28;20112;-75
2022/09/13 12:12:29;;;;;;;5.65;0.80;;;;;;;;;;5018149;28;20097;-75
2022/09/13 12:15:21;;;;;;;5.63;1.00;;;;;;;;;;5007749;28;20041;-75
2022/09/13 12:18:01;;;;;;;6.97;1.00;;;;;;;;;;5006164;28;20678;-74
2022/09/13 12:20:50;;;;;;;6.57;1.00;;;;;;;;;;5012548;28;20156;-76
2022/09/13 12:23:22;;;;;;;6.43;0.80;;;;;;;;;;5012876;28;20085;-76
2022/09/13 12:25:55;;;;;;;4.32;0.75;;;;;;;;;;5010137;28;20042;-77
2022/09/13 12:28:27;;;;;;;8.23;1.23;;;;;;;;;;5011523;28;20049;-76
2022/09/13 12:30:56;;;;;;;9.95;1.10;;;;;;;;;;5011542;28;20389;-77
2022/09/13 12:33:22;;;;;;;10.63;1.13;;;;;;;;;;5014990;28;20045;-75
2022/09/13 12:36:07;;;;;;;7.80;1.00;;;;;;;;;;5012141;28;20038;-75
2022/09/13 12:38:52;;;;;;;9.43;1.05;;;;;;;;;;5010431;28;20045;-76
2022/09/13 12:41:31;;;;;;;8.68;1.10;;;;;;;;;;5011180;28;20554;-76
2022/09/13 12:44:03;;;;;;;8.38;0.93;;;;;;;;;;4992621;28;20050;-76
2022/09/13 12:46:39;;;;;;;5.50;0.85;;;;;;;;;;5005367;28;20049;-78
2022/09/13 12:49:15;;;;;;;9.15;1.00;;;;;;;;;;5010680;28;20484;-78
2022/09/13 12:51:41;;;;;;;7.70;0.93;;;;;;;;;;5008744;28;20104;-78
2022/09/13 12:54:27;;;;;;;7.10;1.10;;;;;;;;;;5010517;28;20049;-78
2022/09/13 12:57:11;;;;;;;7.63;1.02;;;;;;;;;;5012194;28;20050;-78
2022/09/13 12:59:40;;;;;;;6.38;0.88;;;;;;;;;;5010572;28;20053;-78
2022/09/13 13:02:25;;;;;;;7.50;0.90;;;;;;;;;;4992522;28;20046;-77
2022/09/13 13:04:53;;;;;;;7.80;1.10;;;;;;;;;;4992421;28;20047;-78
2022/09/13 13:07:21;;;;;;;8.90;1.00;;;;;;;;;;4996571;28;20058;-75
2022/09/13 13:09:51;;;;;;;5.80;0.80;;;;;;;;;;4994328;28;20042;-77
2022/09/13 13:12:30;;;;;;;9.17;1.27;;;;;;;;;;4991852;28;20046;-78
2022/09/13 13:14:56;;;;;;;5.00;0.90;;;;;;;;;;4993844;28;20042;-80
2022/09/13 13:17:34;;;;;;;6.93;0.98;;;;;;;;;;5014191;28;20453;-77
2022/09/13 13:20:21;;;;;;;7.65;1.13;;;;;;;;;;5011830;28;20050;-78
2022/09/13 13:22:50;;;;;;;7.40;1.00;;;;;;;;;;5000583;28;20046;-77
2022/09/13 13:25:37;;;;;;;7.15;0.80;;;;;;;;;;4990904;28;20129;-78
2022/09/13 13:28:23;;;;;;;7.15;1.08;;;;;;;;;;5009555;28;20056;-78
2022/09/13 13:30:51;;;;;;;5.00;0.75;;;;;;;;;;5014545;28;20046;-79
2022/09/13 13:33:19;;;;;;;6.47;1.20;;;;;;;;;;4996729;28;20054;-79
2022/09/13 13:35:45;;;;;;;4.22;0.80;;;;;;;;;;4996918;28;20042;-79
2022/09/13 13:38:30;;;;;;;6.30;0.90;;;;;;;;;;5010582;28;20416;-79
2022/09/13 13:41:05;;;;;;;7.85;1.02;;;;;;;;;;5015574;28;20081;-79
2022/09/13 13:43:33;;;;;;;3.97;0.75;;;;;;;;;;5013720;28;20053;-79
2022/09/13 13:46:19;;;;;;;6.05;0.95;;;;;;;;;;5015263;28;20060;-80
2022/09/13 13:48:45;;;;;;;4.43;0.98;;;;;;;;;;5013524;28;20044;-79
2022/09/13 13:51:13;;;;;;;5.65;0.85;;;;;;;;;;5008531;28;20054;-77
2022/09/13 13:53:41;;;;;;;6.53;0.98;;;;;;;;;;4994010;28;20046;-78
2022/09/13 13:56:22;;;;;;;8.93;0.93;;;;;;;;;;5015140;28;20076;-77
2022/09/13 13:58:56;;;;;;;6.53;1.00;;;;;;;;;;5013897;28;20054;-82
2022/09/13 14:01:24;;;;;;;7.20;1.10;;;;;;;;;;5014495;28;20050;-83
2022/09/13 14:03:56;;;;;;;5.57;0.90;;;;;;;;;;5016309;28;20119;-80
2022/09/13 14:06:22;;;;;;;6.05;1.23;;;;;;;;;;5011969;28;20057;-79
2022/09/13 14:09:07;;;;;;;9.23;0.88;;;;;;;;;;5001651;28;20046;-81
2022/09/13 14:11:59;;;;;;;9.43;1.50;;;;;;;;;;4995507;28;20050;-79
2022/09/13 14:14:26;;;;;;;6.75;1.15;;;;;;;;;;4993936;28;20050;-79
2022/09/13 14:16:52;;;;;;;8.13;1.40;;;;;;;;;;5012792;28;20608;-78
2022/09/13 14:19:24;;;;;;;6.30;1.00;;;;;;;;;;4981927;28;20045;-80
2022/09/13 14:22:13;;;;;;;9.63;1.25;;;;;;;;;;5017096;28;20042;-79
2022/09/13 14:24:45;;;;;;;7.55;1.30;;;;;;;;;;5003199;28;20097;-81
2022/09/13 14:27:16;;;;;;;8.45;1.15;;;;;;;;;;5013865;28;20041;-81
2022/09/13 14:29:42;;;;;;;;;;;;;;;;;;5015039;28;20056;-81
2022/09/13 14:32:13;;;;;;;7.57;1.20;;;;;;;;;;5015171;28;20012;-81
2022/09/13 14:34:39;;;;;;;9.45;1.25;;;;;;;;;;5015871;28;20045;-82
2022/09/13 14:37:15;;;;;;;8.65;1.23;;;;;;;;;;4980512;28;20092;-78
2022/09/13 14:39:53;;;;;;;7.85;1.40;;;;;;;;;;5014734;28;20446;-80
2022/09/13 14:42:19;;;;;;;9.48;1.60;;;;;;;;;;5015983;28;20041;-82
2022/09/13 14:44:46;;;;;;;8.05;1.20;;;;;;;;;;5013488;28;20073;-81
2022/09/13 14:47:16;;;;;;;9.23;1.45;;;;;;;;;;5015552;28;20125;-82
2022/09/13 14:49:50;;;;;;;6.63;1.30;;;;;;;;;;5020814;28;20124;-82
2022/09/13 14:52:21;;;;;;;10.27;1.90;;;;;;;;;;5012978;28;20084;-81